createdAt,value
2022-08-22T00:01:13.513Z,16.95
2022-08-22T00:06:37.297Z,16.91
2022-08-22T00:11:41.731Z,16.56
2022-08-22T00:16:55.339Z,16.52
2022-08-22T00:22:00.239Z,16.41
2022-08-22T00:27:20.207Z,16.30
2022-08-22T00:32:24.308Z,16.05
2022-08-22T00:37:28.725Z,15.96
2022-08-22T00:42:32.056Z,15.87
2022-08-22T00:47:52.744Z,15.79
2022-08-22T00:52:55.371Z,15.67
2022-08-22T00:58:00.602Z,15.62
2022-08-22T01:03:05.008Z,15.62
2022-08-22T01:08:09.591Z,15.68
2022-08-22T01:13:26.063Z,15.70
2022-08-22T01:18:31.938Z,15.73
2022-08-22T01:23:53.587Z,15.66
2022-08-22T01:29:12.967Z,15.56
2022-08-22T01:34:34.113Z,15.39
2022-08-22T01:39:54.488Z,15.40
2022-08-22T01:45:02.080Z,15.19
2022-08-22T01:50:12.810Z,15.05
2022-08-22T01:55:26.275Z,14.99
2022-08-22T02:00:35.192Z,14.91
2022-08-22T02:05:47.205Z,14.84
2022-08-22T02:11:07.109Z,14.89
2022-08-22T02:16:08.632Z,15.00
2022-08-22T02:21:15.313Z,15.04
2022-08-22T02:26:20.868Z,15.00
2022-08-22T02:31:41.063Z,15.02
2022-08-22T02:36:53.907Z,14.77
2022-08-22T02:42:06.126Z,14.64
2022-08-22T02:47:27.827Z,14.45
2022-08-22T02:52:44.172Z,14.46
2022-08-22T02:57:52.661Z,14.27
2022-08-22T03:03:12.812Z,14.03
2022-08-22T03:08:22.384Z,13.91
2022-08-22T03:13:36.085Z,13.84
2022-08-22T03:18:48.534Z,13.67
2022-08-22T03:23:56.449Z,13.57
2022-08-22T03:29:11.540Z,13.48
2022-08-22T03:34:27.018Z,13.44
2022-08-22T03:39:47.838Z,13.40
2022-08-22T03:45:11.262Z,13.33
2022-08-22T03:50:31.979Z,13.27
2022-08-22T03:55:52.184Z,13.14
2022-08-22T04:01:32.142Z,13.06
2022-08-22T04:06:53.735Z,12.96
2022-08-22T04:11:59.559Z,12.88
2022-08-22T04:17:03.761Z,12.83
2022-08-22T04:22:13.459Z,12.77
2022-08-22T04:27:37.857Z,12.69
2022-08-22T04:32:58.259Z,12.62
2022-08-22T04:38:09.141Z,12.67
2022-08-22T04:43:14.499Z,12.68
2022-08-22T04:48:34.785Z,12.69
2022-08-22T04:53:55.736Z,12.73
2022-08-22T04:58:58.723Z,12.76
2022-08-22T05:04:02.261Z,12.71
2022-08-22T05:09:06.398Z,12.68
2022-08-22T05:14:21.380Z,12.73
2022-08-22T05:19:31.653Z,12.85
2022-08-22T05:24:39.523Z,13.00
2022-08-22T05:29:42.912Z,12.96
2022-08-22T05:34:46.351Z,13.12
2022-08-22T05:39:51.099Z,13.32
2022-08-22T05:44:54.007Z,13.85
2022-08-22T05:50:05.307Z,16.55
2022-08-22T05:55:25.114Z,18.84
2022-08-22T06:00:28.434Z,20.20
2022-08-22T06:05:32.452Z,20.78
2022-08-22T06:10:48.131Z,22.45
2022-08-22T06:15:52.725Z,21.87
2022-08-22T06:20:56.261Z,22.11
2022-08-22T06:25:59.924Z,21.51
2022-08-22T06:31:02.257Z,22.99
2022-08-22T06:36:30.714Z,23.94
2022-08-22T06:41:34.260Z,24.33
2022-08-22T06:46:37.069Z,26.11
2022-08-22T06:51:38.943Z,25.64
2022-08-22T06:56:42.330Z,25.16
2022-08-22T07:01:50.419Z,22.74
2022-08-22T07:06:52.550Z,21.76
2022-08-22T07:11:56.268Z,23.90
2022-08-22T07:17:03.608Z,26.08
2022-08-22T07:22:13.427Z,25.19
2022-08-22T07:27:22.635Z,25.55
2022-08-22T07:32:23.960Z,26.16
2022-08-22T07:37:28.051Z,27.76
2022-08-22T07:42:55.856Z,25.75
2022-08-22T07:48:00.524Z,29.44
2022-08-22T07:53:08.700Z,31.10
2022-08-22T07:58:13.411Z,29.02
2022-08-22T08:03:15.125Z,29.27
2022-08-22T08:08:21.025Z,30.19
2022-08-22T08:13:29.588Z,29.73
2022-08-22T08:18:33.987Z,28.40
2022-08-22T08:23:39.596Z,28.88
2022-08-22T08:28:44.149Z,28.61
2022-08-22T08:33:47.675Z,28.20
2022-08-22T08:39:04.226Z,28.86
2022-08-22T08:44:08.611Z,28.30
2022-08-22T08:49:24.178Z,29.07
2022-08-22T08:54:44.197Z,31.18
2022-08-22T09:00:02.021Z,31.71
2022-08-22T09:05:17.499Z,32.47
2022-08-22T09:10:31.194Z,33.86
2022-08-22T09:15:39.010Z,33.32
2022-08-22T09:20:46.386Z,32.65
2022-08-22T09:26:02.213Z,33.06
2022-08-22T09:31:16.903Z,33.82
2022-08-22T09:36:33.758Z,33.81
2022-08-22T09:41:35.084Z,32.89
2022-08-22T09:46:45.801Z,33.54
2022-08-22T09:51:56.416Z,34.60
2022-08-22T09:56:58.600Z,34.17
2022-08-22T10:02:15.678Z,33.58
2022-08-22T10:07:17.133Z,33.33
2022-08-22T10:12:25.791Z,32.62
2022-08-22T10:17:32.371Z,33.82
2022-08-22T10:22:45.372Z,36.88
2022-08-22T10:27:47.745Z,36.55
2022-08-22T10:32:55.277Z,34.58
2022-08-22T10:37:59.486Z,33.68
2022-08-22T10:43:12.766Z,33.48
2022-08-22T10:48:21.839Z,33.87
2022-08-22T10:53:42.847Z,32.51
2022-08-22T10:58:55.978Z,34.58
2022-08-22T11:04:00.427Z,36.21
2022-08-22T11:09:14.315Z,36.01
2022-08-22T11:14:34.629Z,37.76
2022-08-22T11:19:35.943Z,36.78
2022-08-22T11:24:54.026Z,33.75
2022-08-22T11:30:03.283Z,33.47
2022-08-22T11:35:22.979Z,34.67
2022-08-22T11:40:38.551Z,34.45
2022-08-22T11:45:51.452Z,34.07
2022-08-22T11:51:13.402Z,35.09
2022-08-22T11:56:32.735Z,32.15
2022-08-22T12:01:42.753Z,33.97
2022-08-22T12:06:49.652Z,34.20
2022-08-22T12:11:53.955Z,35.56
2022-08-22T12:17:22.798Z,35.37
2022-08-22T12:23:01.063Z,33.86
2022-08-22T12:28:21.378Z,32.45
2022-08-22T12:33:30.819Z,31.03
2022-08-22T12:38:49.622Z,30.78
2022-08-22T12:44:12.596Z,30.30
2022-08-22T12:49:24.920Z,29.92
2022-08-22T12:54:35.174Z,30.19
2022-08-22T12:59:38.632Z,30.26
2022-08-22T13:04:45.267Z,29.51
2022-08-22T13:09:48.971Z,29.54
2022-08-22T13:14:56.762Z,30.91
2022-08-22T13:20:10.771Z,30.49
2022-08-22T13:25:25.821Z,30.34
2022-08-22T13:30:33.477Z,30.04
2022-08-22T13:35:54.095Z,30.80
2022-08-22T13:40:56.933Z,30.34
2022-08-22T13:46:04.858Z,29.98
2022-08-22T13:51:11.304Z,29.96
2022-08-22T13:56:20.369Z,29.78
2022-08-22T14:01:45.482Z,30.03
2022-08-22T14:07:03.295Z,30.01
2022-08-22T14:12:11.700Z,29.53
2022-08-22T14:17:16.033Z,29.80
2022-08-22T14:22:32.020Z,29.95
2022-08-22T14:27:36.915Z,29.90
2022-08-22T14:32:48.076Z,29.61
2022-08-22T14:37:53.476Z,29.53
2022-08-22T14:43:04.248Z,29.41
2022-08-22T14:48:29.630Z,29.65
2022-08-22T14:53:34.421Z,29.62
2022-08-22T14:58:54.433Z,29.81
2022-08-22T15:04:02.338Z,29.99
2022-08-22T15:09:08.685Z,29.87
2022-08-22T15:14:13.681Z,29.92
2022-08-22T15:19:35.458Z,29.85
2022-08-22T15:24:45.719Z,29.70
2022-08-22T15:29:52.495Z,29.73
2022-08-22T15:35:02.952Z,29.70
2022-08-22T15:40:12.055Z,29.79
2022-08-22T15:45:37.392Z,29.67
2022-08-22T15:50:41.998Z,29.61
2022-08-22T15:56:05.041Z,29.52
2022-08-22T16:01:19.937Z,29.52
2022-08-22T16:06:42.495Z,29.53
2022-08-22T16:11:55.564Z,29.47
2022-08-22T16:17:02.041Z,29.27
2022-08-22T16:22:05.377Z,29.06
2022-08-22T16:27:20.674Z,28.73
2022-08-22T16:32:25.192Z,28.63
2022-08-22T16:37:29.645Z,28.36
2022-08-22T16:42:40.110Z,28.24
2022-08-22T16:47:54.490Z,28.09
2022-08-22T16:53:12.007Z,27.78
2022-08-22T16:58:49.875Z,27.48
2022-08-22T17:04:09.443Z,27.19
2022-08-22T17:09:34.188Z,26.97
2022-08-22T17:14:47.749Z,26.96
2022-08-22T17:20:08.240Z,26.87
2022-08-22T17:25:18.644Z,26.91
2022-08-22T17:30:22.464Z,26.68
2022-08-22T17:35:42.566Z,26.65
2022-08-22T17:41:11.906Z,26.61
2022-08-22T17:46:13.549Z,26.59
2022-08-22T17:51:34.169Z,26.47
2022-08-22T17:57:05.560Z,26.47
2022-08-22T18:02:11.292Z,26.32
2022-08-22T18:07:15.436Z,26.17
2022-08-22T18:12:34.310Z,26.03
2022-08-22T18:17:48.002Z,25.88
2022-08-22T18:22:55.449Z,25.72
2022-08-22T18:28:03.672Z,25.61
2022-08-22T18:33:12.467Z,25.41
2022-08-22T18:38:34.176Z,25.38
2022-08-22T18:43:37.471Z,25.30
2022-08-22T18:48:54.413Z,25.14
2022-08-22T18:54:04.807Z,24.86
2022-08-22T18:59:18.466Z,24.65
2022-08-22T19:04:32.997Z,24.36
2022-08-22T19:09:47.038Z,24.33
2022-08-22T19:14:57.915Z,24.26
2022-08-22T19:20:37.788Z,24.16
2022-08-22T19:26:00.028Z,24.13
2022-08-22T19:31:42.784Z,24.07
2022-08-22T19:36:45.621Z,23.98
2022-08-22T19:41:52.746Z,23.88
2022-08-22T19:46:59.837Z,23.73
2022-08-22T19:52:13.472Z,23.49
2022-08-22T19:57:17.779Z,23.31
2022-08-22T20:02:32.012Z,23.06
2022-08-22T20:07:33.363Z,22.94
2022-08-22T20:12:51.932Z,22.61
2022-08-22T20:23:19.699Z,22.13
2022-08-22T20:28:27.136Z,22.12
2022-08-22T20:33:32.425Z,21.93
2022-08-22T20:38:39.517Z,21.88
2022-08-22T20:43:47.299Z,21.76
2022-08-22T20:48:50.672Z,21.48
2022-08-22T20:53:59.696Z,21.20
2022-08-22T20:59:12.591Z,20.97
2022-08-22T21:04:17.895Z,20.69
2022-08-22T21:09:38.317Z,20.67
2022-08-22T21:14:45.906Z,20.74
2022-08-22T21:19:47.431Z,20.74
2022-08-22T21:24:48.782Z,20.52
2022-08-22T21:29:50.154Z,20.37
2022-08-22T21:34:51.987Z,20.27
2022-08-22T21:39:59.790Z,20.10
2022-08-22T21:45:03.073Z,19.91
2022-08-22T21:50:04.392Z,19.69
2022-08-22T21:55:34.436Z,19.53
2022-08-22T22:00:45.492Z,19.50
2022-08-22T22:05:52.751Z,19.20
2022-08-22T22:10:55.537Z,19.08
2022-08-22T22:15:57.040Z,19.03
2022-08-22T22:20:58.384Z,19.01
2022-08-22T22:26:00.911Z,18.94
2022-08-22T22:31:03.508Z,18.82
2022-08-22T22:36:06.759Z,18.72
2022-08-22T22:41:08.136Z,18.59
2022-08-22T22:46:09.517Z,18.48
2022-08-22T22:51:12.218Z,18.40
2022-08-22T22:56:21.231Z,18.32
2022-08-22T23:01:25.727Z,18.25
2022-08-22T23:06:29.207Z,18.23
2022-08-22T23:11:31.012Z,18.16
2022-08-22T23:16:37.128Z,18.08
2022-08-22T23:21:39.429Z,18.03
2022-08-22T23:26:40.870Z,17.73
2022-08-22T23:31:43.519Z,17.57
2022-08-22T23:36:45.921Z,17.42
2022-08-22T23:41:48.099Z,17.31
2022-08-22T23:46:49.963Z,17.17
2022-08-22T23:51:51.933Z,17.11
2022-08-22T23:56:54.692Z,16.96
